Time;durP1;ratioP1;P1;durP2;ratioP2;P2;SDS_P1;SDS_P2;PMS_P1;PMS_P2;Temp;Humidity;BMP_temperature;BMP_pressure;BME280_temperature;BME280_humidity;BME280_pressure;Samples;Min_cycle;Max_cycle;Signal;HPM_P1;HPM_P2
2022/07/14 00:00:52;;;;;;;2.22;2.08;;;25.80;79.10;;;;;;4971004;28;20018;-50
2022/07/14 00:03:17;;;;;;;2.65;2.10;;;25.80;79.30;;;;;;4969765;28;20622;-54
2022/07/14 00:05:43;;;;;;;2.55;1.98;;;25.80;79.60;;;;;;4969902;28;20449;-46
2022/07/14 00:08:08;;;;;;;7.43;2.22;;;25.70;79.50;;;;;;4970289;28;20076;-51
2022/07/14 00:10:34;;;;;;;2.25;1.98;;;25.60;79.70;;;;;;4971027;28;20030;-54
2022/07/14 00:13:00;;;;;;;2.85;1.75;;;25.60;79.80;;;;;;4970888;28;20023;-49
2022/07/14 00:15:26;;;;;;;2.42;1.90;;;25.50;79.50;;;;;;4970832;28;20050;-44
2022/07/14 00:17:52;;;;;;;2.17;1.63;;;25.50;79.50;;;;;;4970236;28;20031;-54
2022/07/14 00:20:18;;;;;;;2.13;1.80;;;25.40;79.40;;;;;;4970754;28;20486;-51
2022/07/14 00:22:44;;;;;;;8.52;1.75;;;25.40;79.40;;;;;;4970779;28;20505;-54
2022/07/14 00:25:10;;;;;;;4.50;1.50;;;25.40;79.70;;;;;;4970769;28;20030;-53
2022/07/14 00:27:39;;;;;;;2.22;1.90;;;25.30;79.20;;;;;;4968768;28;20539;-44
2022/07/14 00:30:05;;;;;;;6.20;1.90;;;25.30;79.00;;;;;;4973861;28;20062;-52
2022/07/14 00:32:33;;;;;;;7.38;1.75;;;25.30;79.10;;;;;;4971804;28;20106;-53
2022/07/14 00:34:59;;;;;;;6.00;2.17;;;25.30;78.70;;;;;;4970771;28;20116;-50
2022/07/14 00:37:25;;;;;;;3.20;1.33;;;25.30;78.90;;;;;;4969872;28;20062;-52
2022/07/14 00:39:56;;;;;;;5.15;1.50;;;25.20;78.80;;;;;;4970816;28;20045;-46
2022/07/14 00:42:35;;;;;;;2.92;1.48;;;25.20;78.80;;;;;;4970486;28;20100;-53
2022/07/14 00:45:03;;;;;;;4.38;1.60;;;25.20;78.60;;;;;;4970598;28;20109;-51
2022/07/14 00:47:29;;;;;;;9.75;1.67;;;25.10;78.50;;;;;;4969693;28;20035;-55
2022/07/14 00:49:55;;;;;;;3.00;1.48;;;25.20;78.60;;;;;;4970540;28;20137;-53
2022/07/14 00:52:23;;;;;;;1.65;1.55;;;25.10;79.00;;;;;;4970296;28;20105;-55
2022/07/14 00:54:48;;;;;;;3.67;1.60;;;25.10;78.90;;;;;;4970092;28;20038;-53
2022/07/14 00:57:14;;;;;;;3.03;2.00;;;25.20;79.10;;;;;;4969681;28;20077;-52
2022/07/14 00:59:40;;;;;;;3.42;1.63;;;25.10;80.40;;;;;;4970749;28;20015;-53
2022/07/14 01:02:05;;;;;;;1.90;1.80;;;25.10;79.80;;;;;;4970186;28;20034;-50
2022/07/14 01:04:31;;;;;;;4.25;1.70;;;25.10;80.20;;;;;;4970074;28;20027;-54
2022/07/14 01:06:56;;;;;;;2.58;1.42;;;25.00;80.60;;;;;;4968545;28;20499;-50
2022/07/14 01:09:22;;;;;;;4.07;1.73;;;25.00;80.40;;;;;;4970442;28;20508;-53
2022/07/14 01:11:47;;;;;;;4.00;1.60;;;25.00;80.30;;;;;;4970103;28;20033;-50
2022/07/14 01:14:13;;;;;;;4.32;1.80;;;25.00;80.30;;;;;;4970310;28;20208;-45
2022/07/14 01:16:38;;;;;;;1.77;1.67;;;24.90;80.00;;;;;;4970014;28;20556;-52
2022/07/14 01:19:04;;;;;;;2.78;1.73;;;24.90;80.20;;;;;;4968774;28;20110;-54
2022/07/14 01:21:30;;;;;;;6.38;2.10;;;24.80;80.30;;;;;;4969892;28;20023;-53
2022/07/14 01:23:55;;;;;;;2.00;1.90;;;24.80;80.50;;;;;;4969834;28;20023;-46
2022/07/14 01:26:20;;;;;;;6.63;1.60;;;24.70;80.70;;;;;;4969839;28;20019;-53
2022/07/14 01:28:46;;;;;;;3.67;1.98;;;24.70;80.90;;;;;;4967988;28;20038;-52
2022/07/14 01:31:11;;;;;;;3.40;1.73;;;24.60;81.10;;;;;;4969886;28;20408;-53
2022/07/14 01:33:37;;;;;;;6.57;1.92;;;24.60;81.40;;;;;;4969871;28;20031;-49
2022/07/14 01:36:03;;;;;;;2.60;1.98;;;24.60;82.10;;;;;;4968342;28;20026;-53
2022/07/14 01:38:28;;;;;;;2.80;1.98;;;24.50;82.70;;;;;;4969102;28;20064;-53
2022/07/14 01:40:54;;;;;;;6.05;1.60;;;24.50;82.70;;;;;;4970020;28;20402;-53
2022/07/14 01:43:19;;;;;;;2.15;1.80;;;24.40;83.50;;;;;;4969750;28;20023;-51
2022/07/14 01:45:45;;;;;;;2.05;1.80;;;24.40;84.00;;;;;;4969659;28;20031;-49
2022/07/14 01:48:10;;;;;;;4.75;1.70;;;24.30;84.00;;;;;;4968970;28;20023;-53
2022/07/14 01:50:36;;;;;;;1.92;1.65;;;24.30;84.20;;;;;;4969691;28;20035;-51
2022/07/14 01:53:01;;;;;;;9.18;2.03;;;24.20;84.60;;;;;;4969731;28;20023;-51
2022/07/14 01:55:28;;;;;;;2.72;1.70;;;24.10;84.80;;;;;;4969496;28;20027;-53
2022/07/14 01:57:53;;;;;;;3.72;1.60;;;24.00;84.80;;;;;;4968695;28;20114;-45
2022/07/14 02:00:19;;;;;;;3.17;1.70;;;24.00;85.30;;;;;;4969926;28;20110;-51
2022/07/14 02:02:44;;;;;;;2.47;1.73;;;24.00;85.90;;;;;;4969290;28;20032;-51
2022/07/14 02:05:10;;;;;;;2.88;1.90;;;23.90;85.80;;;;;;4968354;28;20022;-49
2022/07/14 02:07:36;;;;;;;1.63;1.52;;;23.80;86.30;;;;;;4968765;28;20113;-48
2022/07/14 02:13:07;;;;;;;1.95;1.85;;;23.50;87.40;;;;;;5048428;28;20033;-51
2022/07/14 02:15:33;;;;;;;3.42;1.73;;;23.40;85.90;;;;;;5048625;28;20029;-53
2022/07/14 02:17:58;;;;;;;6.88;1.98;;;23.40;85.80;;;;;;5011199;28;20422;-51
2022/07/14 02:20:25;;;;;;;6.72;2.90;;;23.40;88.40;;;;;;4968115;28;20054;-51
2022/07/14 02:22:50;;;;;;;4.63;2.13;;;23.30;87.00;;;;;;4969203;28;20031;-52
2022/07/14 02:25:16;;;;;;;3.03;1.70;;;23.30;88.30;;;;;;4969356;28;20080;-54
2022/07/14 02:27:41;;;;;;;1.60;1.50;;;23.20;88.80;;;;;;4968514;28;20063;-51
2022/07/14 02:30:07;;;;;;;12.93;2.17;;;23.20;88.80;;;;;;4969163;28;20031;-53
2022/07/14 02:32:33;;;;;;;1.60;1.50;;;23.10;89.00;;;;;;4971309;28;20019;-48
2022/07/14 02:34:59;;;;;;;1.80;1.70;;;23.10;89.20;;;;;;4972539;28;20019;-53
2022/07/14 02:37:24;;;;;;;4.38;1.40;;;23.10;89.90;;;;;;4971594;28;20022;-54
2022/07/14 02:39:50;;;;;;;5.00;2.45;;;23.00;90.00;;;;;;4972369;28;20030;-52
2022/07/14 02:42:16;;;;;;;3.63;1.83;;;23.00;90.10;;;;;;4972238;28;20030;-52
2022/07/14 02:44:41;;;;;;;2.00;1.80;;;23.00;90.30;;;;;;4972281;28;20123;-51
2022/07/14 02:47:07;;;;;;;6.45;2.10;;;23.00;90.30;;;;;;4971617;28;20043;-52
2022/07/14 02:49:32;;;;;;;2.15;1.80;;;22.90;90.50;;;;;;4972562;28;20114;-52
2022/07/14 02:51:58;;;;;;;9.05;2.10;;;23.00;90.30;;;;;;4970815;28;20077;-53
2022/07/14 02:54:23;;;;;;;5.80;1.98;;;23.00;90.80;;;;;;4972078;28;20406;-53
2022/07/14 02:56:49;;;;;;;3.85;2.08;;;22.80;90.40;;;;;;4971659;28;20110;-44
2022/07/14 02:59:15;;;;;;;3.35;1.58;;;22.80;90.60;;;;;;4971839;28;20027;-46
2022/07/14 03:01:41;;;;;;;3.80;1.80;;;22.70;90.90;;;;;;4972043;28;20551;-54
2022/07/14 03:04:06;;;;;;;2.75;1.58;;;22.70;91.00;;;;;;4971942;28;20106;-54
2022/07/14 03:06:32;;;;;;;1.95;1.77;;;22.60;91.30;;;;;;4970948;28;20031;-50
2022/07/14 03:08:58;;;;;;;2.80;1.88;;;22.60;91.40;;;;;;4971142;28;20031;-45
2022/07/14 03:11:23;;;;;;;2.72;1.63;;;22.60;91.40;;;;;;4971943;28;20512;-53
2022/07/14 03:13:49;;;;;;;1.92;1.80;;;22.60;91.10;;;;;;4971563;28;20035;-52
2022/07/14 03:16:15;;;;;;;3.38;1.60;;;22.50;91.00;;;;;;4971713;28;20505;-54
2022/07/14 03:18:40;;;;;;;1.85;1.75;;;22.50;91.10;;;;;;4971065;28;20027;-46
2022/07/14 03:21:07;;;;;;;1.85;1.63;;;22.40;91.40;;;;;;4971677;28;20069;-50
2022/07/14 03:23:33;;;;;;;3.30;1.63;;;22.40;91.40;;;;;;4971433;28;20402;-51
2022/07/14 03:25:59;;;;;;;4.28;1.83;;;22.40;91.50;;;;;;4972148;28;20035;-50
2022/07/14 03:28:24;;;;;;;6.97;1.50;;;22.40;92.10;;;;;;4970838;28;20501;-50
2022/07/14 03:30:54;;;;;;;2.38;1.70;;;22.20;91.80;;;;;;4971533;28;20134;-51
2022/07/14 03:33:20;;;;;;;2.15;1.50;;;22.20;92.10;;;;;;4971402;28;20107;-51
2022/07/14 03:35:45;;;;;;;3.83;1.85;;;22.10;92.70;;;;;;4971352;28;20117;-50
2022/07/14 03:38:11;;;;;;;4.10;2.10;;;22.10;92.60;;;;;;4970570;28;20065;-52
2022/07/14 03:40:36;;;;;;;2.25;2.05;;;22.10;93.00;;;;;;4971457;28;20027;-52
2022/07/14 03:43:02;;;;;;;2.60;1.88;;;22.00;93.30;;;;;;4970766;28;20022;-52
2022/07/14 03:45:27;;;;;;;5.38;2.10;;;22.00;93.30;;;;;;4971245;28;20110;-52
2022/07/14 03:47:53;;;;;;;5.40;1.80;;;22.00;93.50;;;;;;4970569;28;20129;-48
2022/07/14 03:50:18;;;;;;;4.22;1.83;;;22.00;93.80;;;;;;4971339;28;20034;-54
2022/07/14 03:52:44;;;;;;;2.97;1.90;;;22.00;93.80;;;;;;4971118;28;20053;-52
2022/07/14 03:55:09;;;;;;;4.60;1.75;;;22.00;94.20;;;;;;4971015;28;20035;-53
2022/07/14 03:57:35;;;;;;;4.15;1.58;;;22.00;94.00;;;;;;4970432;28;20422;-45
2022/07/14 04:00:00;;;;;;;2.00;1.90;;;22.10;93.70;;;;;;4971332;28;20069;-49
2022/07/14 04:02:26;;;;;;;1.67;1.58;;;22.10;93.80;;;;;;4971046;28;20092;-51
2022/07/14 04:04:51;;;;;;;3.05;1.73;;;22.10;93.80;;;;;;4969119;28;20478;-49
2022/07/14 04:07:17;;;;;;;4.60;2.13;;;22.10;94.20;;;;;;4970333;28;20125;-51
2022/07/14 04:09:42;;;;;;;2.58;2.08;;;22.10;94.30;;;;;;4971180;28;20057;-51
2022/07/14 04:12:08;;;;;;;2.58;1.83;;;22.10;94.30;;;;;;4971282;28;20084;-51
2022/07/14 04:14:33;;;;;;;4.53;1.90;;;22.20;94.30;;;;;;4970806;28;20045;-44
2022/07/14 04:16:59;;;;;;;2.88;1.92;;;22.20;94.10;;;;;;4970117;28;20042;-53
2022/07/14 04:19:24;;;;;;;2.25;1.98;;;22.30;94.10;;;;;;4970841;28;20026;-52
2022/07/14 04:21:50;;;;;;;4.18;1.70;;;22.30;94.10;;;;;;4969493;28;20118;-51
2022/07/14 04:24:15;;;;;;;3.88;1.88;;;22.30;94.10;;;;;;4970605;28;20053;-53
2022/07/14 04:26:42;;;;;;;2.40;1.92;;;22.30;93.70;;;;;;4970688;28;20035;-53
2022/07/14 04:29:08;;;;;;;2.70;1.95;;;22.30;93.70;;;;;;4970060;28;20023;-54
2022/07/14 04:31:34;;;;;;;4.43;2.20;;;22.30;93.90;;;;;;4971183;28;20429;-54
2022/07/14 04:34:00;;;;;;;3.72;1.98;;;22.20;94.30;;;;;;4970324;28;20042;-54
2022/07/14 04:36:25;;;;;;;4.72;2.15;;;22.30;94.60;;;;;;4970727;28;20035;-51
2022/07/14 04:38:51;;;;;;;2.47;1.85;;;22.20;94.40;;;;;;4969809;28;20097;-51
2022/07/14 04:41:16;;;;;;;7.25;2.20;;;22.30;94.60;;;;;;4970587;28;20097;-46
2022/07/14 04:43:42;;;;;;;2.50;2.30;;;22.40;94.50;;;;;;4970237;28;20026;-52
2022/07/14 04:46:08;;;;;;;3.90;2.28;;;22.40;94.60;;;;;;4969154;28;20038;-54
2022/07/14 04:52:01;;;;;;;7.63;1.95;;;22.30;95.20;;;;;;4969632;28;20056;-54
2022/07/14 04:54:03;;;;;;;3.30;1.88;;;22.20;95.40;;;;;;4969101;28;19997;-50
2022/07/14 04:56:29;;;;;;;2.15;2.00;;;22.20;95.30;;;;;;5096755;22;20478;-52
2022/07/14 04:58:54;;;;;;;4.53;2.20;;;22.20;95.20;;;;;;5111729;28;20027;-50
2022/07/14 05:01:20;;;;;;;4.65;1.90;;;22.20;95.50;;;;;;5112408;28;20058;-49
2022/07/14 05:03:45;;;;;;;2.75;2.08;;;22.10;95.70;;;;;;5112019;28;20063;-50
2022/07/14 05:06:11;;;;;;;3.03;2.17;;;22.10;96.00;;;;;;5110917;28;20031;-51
2022/07/14 05:08:36;;;;;;;4.80;2.20;;;22.00;95.60;;;;;;5092985;28;20030;-48
2022/07/14 05:11:04;;;;;;;6.22;2.63;;;22.10;95.90;;;;;;5111857;28;20053;-48
2022/07/14 05:13:29;;;;;;;2.00;1.90;;;22.00;96.10;;;;;;5112129;28;20029;-50
2022/07/14 05:15:55;;;;;;;2.40;1.88;;;22.10;96.30;;;;;;5093588;28;20566;-52
2022/07/14 05:18:20;;;;;;;3.97;2.03;;;22.10;96.50;;;;;;5111215;28;20495;-47
2022/07/14 05:20:46;;;;;;;2.17;2.00;;;22.10;96.90;;;;;;5093722;28;20110;-51
2022/07/14 05:23:11;;;;;;;3.58;1.98;;;22.20;96.70;;;;;;5111821;28;20024;-51
2022/07/14 05:25:39;;;;;;;4.68;2.15;;;22.30;96.40;;;;;;5111724;28;20034;-50
2022/07/14 05:28:04;;;;;;;6.47;2.00;;;22.40;96.40;;;;;;5110968;28;20031;-48
2022/07/14 05:30:30;;;;;;;4.13;2.40;;;22.40;96.30;;;;;;5111669;28;20434;-49
2022/07/14 05:32:57;;;;;;;7.88;2.28;;;22.50;96.00;;;;;;5111791;28;20030;-47
2022/07/14 05:35:22;;;;;;;2.72;1.92;;;22.50;96.30;;;;;;5111679;28;20031;-48
2022/07/14 05:37:48;;;;;;;3.08;1.77;;;22.50;97.00;;;;;;5111200;28;20028;-49
2022/07/14 05:40:13;;;;;;;1.80;1.70;;;22.50;97.10;;;;;;5093340;28;20032;-48
2022/07/14 05:42:39;;;;;;;3.97;1.80;;;22.50;96.90;;;;;;5111781;28;20450;-53
2022/07/14 05:45:05;;;;;;;4.70;2.22;;;22.60;96.60;;;;;;5111588;28;20071;-48
2022/07/14 05:47:31;;;;;;;5.50;2.10;;;22.80;96.40;;;;;;5111066;28;20028;-47
2022/07/14 05:49:56;;;;;;;3.67;2.22;;;23.00;96.10;;;;;;5111583;28;20034;-48
2022/07/14 05:52:22;;;;;;;2.80;1.88;;;23.20;95.90;;;;;;5111646;28;20209;-48
2022/07/14 05:54:47;;;;;;;2.92;2.25;;;23.50;95.30;;;;;;5111739;28;20026;-50
2022/07/14 05:57:13;;;;;;;5.40;2.40;;;23.80;95.60;;;;;;5110739;28;20470;-50
2022/07/14 05:59:39;;;;;;;5.95;2.13;;;24.00;95.10;;;;;;5111558;28;20394;-50
2022/07/14 06:02:04;;;;;;;6.72;2.50;;;24.50;93.80;;;;;;5111422;28;20106;-48
2022/07/14 06:04:30;;;;;;;4.65;2.20;;;25.10;92.20;;;;;;5111263;28;20019;-48
2022/07/14 06:06:56;;;;;;;3.65;2.10;;;26.00;90.70;;;;;;5112311;28;20065;-50
2022/07/14 06:09:21;;;;;;;3.60;2.20;;;26.50;88.60;;;;;;5097309;28;20158;-51
2022/07/14 06:11:47;;;;;;;4.43;2.70;;;26.40;87.60;;;;;;5096909;28;20020;-47
2022/07/14 06:14:14;;;;;;;8.90;2.95;;;26.30;88.20;;;;;;5115231;28;20118;-48
2022/07/14 06:16:40;;;;;;;6.68;2.22;;;26.20;88.80;;;;;;5115134;28;20045;-48
2022/07/14 06:19:05;;;;;;;10.48;2.05;;;26.00;90.20;;;;;;5114952;28;20103;-53
2022/07/14 06:21:31;;;;;;;6.70;2.13;;;26.00;86.70;;;;;;5088615;28;20047;-59
2022/07/14 06:23:57;;;;;;;3.35;2.25;;;25.70;85.30;;;;;;5098917;28;20023;-48
2022/07/14 06:26:22;;;;;;;2.63;1.90;;;25.50;86.90;;;;;;5096702;28;20069;-47
2022/07/14 06:28:48;;;;;;;4.35;2.35;;;25.30;87.30;;;;;;5114421;28;20077;-46
2022/07/14 06:31:14;;;;;;;6.47;3.15;;;25.10;87.40;;;;;;5115014;28;20404;-47
2022/07/14 06:33:40;;;;;;;3.00;2.47;;;24.80;87.80;;;;;;5112592;28;20059;-47
2022/07/14 06:36:08;;;;;;;5.30;1.95;;;24.80;88.10;;;;;;5110483;28;20039;-50
2022/07/14 06:38:34;;;;;;;2.78;2.10;;;24.90;88.20;;;;;;5106691;28;20484;-49
2022/07/14 06:41:00;;;;;;;3.33;2.10;;;25.50;88.10;;;;;;5103283;28;20084;-48
2022/07/14 06:43:26;;;;;;;5.03;2.20;;;27.00;84.70;;;;;;5114724;28;20027;-48
2022/07/14 06:45:52;;;;;;;4.03;1.80;;;28.10;81.50;;;;;;5114733;28;20073;-48
2022/07/14 06:48:18;;;;;;;7.18;2.00;;;28.80;80.50;;;;;;5114015;28;20491;-49
2022/07/14 06:50:44;;;;;;;3.83;1.73;;;29.90;77.90;;;;;;5114801;28;20051;-49
2022/07/14 06:53:10;;;;;;;3.15;1.90;;;31.00;74.50;;;;;;5113576;28;20387;-50
2022/07/14 06:55:35;;;;;;;2.40;1.80;;;32.00;72.20;;;;;;5114117;28;20107;-50
2022/07/14 06:58:01;;;;;;;2.38;1.50;;;32.70;70.00;;;;;;5113924;28;20080;-49
2022/07/14 07:00:26;;;;;;;4.35;1.73;;;32.90;69.40;;;;;;5096131;28;20035;-51
2022/07/14 07:02:52;;;;;;;9.52;1.80;;;32.60;68.90;;;;;;5114911;28;20027;-53
2022/07/14 07:08:01;;;;;;;5.40;1.60;;;31.00;70.80;;;;;;5114170;28;20088;-52
2022/07/14 07:10:28;;;;;;;2.08;1.75;;;29.90;72.40;;;;;;5114558;28;20475;-51
2022/07/14 07:12:54;;;;;;;5.65;2.33;;;28.90;74.60;;;;;;5114632;28;20024;-49
2022/07/14 07:15:20;;;;;;;2.63;1.92;;;28.30;76.30;;;;;;5114201;28;20526;-51
2022/07/14 07:17:46;;;;;;;5.28;1.90;;;27.90;77.00;;;;;;5113066;28;20137;-51
2022/07/14 07:20:12;;;;;;;5.47;2.47;;;27.50;78.50;;;;;;5096184;28;20059;-52
2022/07/14 07:22:38;;;;;;;6.20;2.25;;;27.00;79.80;;;;;;5114407;28;20023;-49
2022/07/14 07:25:05;;;;;;;4.35;1.88;;;26.70;81.90;;;;;;5114963;28;20023;-52
2022/07/14 07:27:31;;;;;;;4.55;1.90;;;26.50;81.90;;;;;;5113519;28;20034;-50
2022/07/14 07:29:58;;;;;;;5.30;1.77;;;26.30;82.70;;;;;;5095749;28;20023;-49
2022/07/14 07:32:23;;;;;;;5.28;2.53;;;26.20;83.90;;;;;;5113846;28;20027;-52
2022/07/14 07:34:49;;;;;;;3.42;2.00;;;26.10;83.40;;;;;;5113863;28;20097;-48
2022/07/14 07:37:14;;;;;;;2.45;2.25;;;25.90;83.30;;;;;;5112883;28;20038;-48
2022/07/14 07:39:40;;;;;;;6.68;2.20;;;25.90;83.90;;;;;;5113933;28;20094;-47
2022/07/14 07:42:05;;;;;;;5.82;2.08;;;25.80;84.20;;;;;;5095324;28;20127;-49
2022/07/14 07:44:31;;;;;;;7.00;2.20;;;25.50;85.30;;;;;;5113703;28;20023;-48
2022/07/14 07:46:57;;;;;;;14.38;2.50;;;25.40;86.10;;;;;;5094605;28;20081;-47
2022/07/14 07:49:22;;;;;;;5.18;2.50;;;25.50;84.90;;;;;;5095317;28;20110;-48
2022/07/14 07:51:48;;;;;;;3.67;1.88;;;25.50;84.60;;;;;;5111857;28;20019;-51
2022/07/14 07:54:14;;;;;;;5.65;2.08;;;25.60;85.10;;;;;;5113385;28;20126;-48
2022/07/14 07:56:40;;;;;;;7.65;1.92;;;25.70;84.40;;;;;;5113323;28;20032;-49
2022/07/14 07:59:05;;;;;;;3.38;1.90;;;25.90;84.60;;;;;;5112505;28;20022;-48
2022/07/14 08:01:31;;;;;;;8.02;2.25;;;26.20;84.30;;;;;;5113482;28;20050;-48
2022/07/14 08:03:57;;;;;;;9.48;2.90;;;26.60;84.10;;;;;;5113980;28;20020;-52
2022/07/14 08:06:22;;;;;;;5.55;1.80;;;26.70;83.60;;;;;;5095400;28;20076;-48
2022/07/14 08:08:48;;;;;;;1.88;1.77;;;26.80;81.80;;;;;;5094391;28;20020;-50
2022/07/14 08:11:13;;;;;;;6.43;1.88;;;26.80;82.40;;;;;;5113230;28;20023;-49
2022/07/14 08:13:39;;;;;;;3.38;1.95;;;26.80;82.80;;;;;;5112327;28;20444;-51
2022/07/14 08:16:05;;;;;;;2.78;1.75;;;26.80;82.90;;;;;;5112544;28;20031;-51
2022/07/14 08:18:30;;;;;;;2.92;1.88;;;26.90;84.00;;;;;;5093605;28;20100;-47
2022/07/14 08:20:56;;;;;;;4.00;1.85;;;26.90;82.00;;;;;;5112988;28;20063;-48
2022/07/14 08:23:22;;;;;;;5.00;2.13;;;26.80;81.90;;;;;;5112999;28;20398;-51
2022/07/14 08:25:47;;;;;;;5.70;3.00;;;26.70;82.30;;;;;;5111161;28;20024;-49
2022/07/14 08:28:13;;;;;;;7.47;1.83;;;26.60;83.00;;;;;;5112171;28;20107;-49
2022/07/14 08:30:39;;;;;;;1.90;1.77;;;26.50;83.10;;;;;;5089660;28;20039;-51
2022/07/14 08:33:04;;;;;;;3.03;1.95;;;26.50;83.40;;;;;;5105405;28;20134;-49
2022/07/14 08:35:31;;;;;;;4.65;2.40;;;26.60;83.60;;;;;;5112067;28;20031;-50
2022/07/14 08:37:56;;;;;;;2.55;2.35;;;26.60;84.80;;;;;;5098460;28;20107;-50
2022/07/14 08:40:25;;;;;;;7.78;4.20;;;26.60;83.80;;;;;;5092417;28;20044;-47
2022/07/14 08:42:52;;;;;;;7.57;3.85;;;26.50;83.70;;;;;;5111410;28;20487;-51
2022/07/14 08:45:21;;;;;;;6.22;3.28;;;26.30;83.60;;;;;;5086345;28;20034;-49
2022/07/14 08:47:47;;;;;;;10.45;2.28;;;26.40;84.10;;;;;;5091485;28;20059;-50
2022/07/14 08:50:17;;;;;;;5.18;1.98;;;26.30;84.50;;;;;;5106946;28;20054;-48
2022/07/14 08:52:44;;;;;;;2.30;1.90;;;26.30;84.30;;;;;;5094098;28;20028;-49
2022/07/14 08:55:11;;;;;;;4.93;1.60;;;26.40;83.80;;;;;;5111610;28;20035;-52
2022/07/14 08:57:38;;;;;;;4.20;1.90;;;26.70;84.40;;;;;;5093235;28;20020;-50
2022/07/14 09:00:14;;;;;;;1.90;1.70;;;26.90;83.70;;;;;;5111628;28;20149;-49
2022/07/14 09:02:43;;;;;;;2.97;1.52;;;27.10;82.50;;;;;;5111825;28;20482;-49
2022/07/14 09:05:09;;;;;;;4.28;2.42;;;27.90;81.20;;;;;;5111887;28;20096;-51
2022/07/14 09:07:37;;;;;;;3.28;1.92;;;28.70;78.20;;;;;;5099881;28;20027;-47
2022/07/14 09:10:17;;;;;;;3.75;1.90;;;29.10;75.70;;;;;;5112025;28;20043;-49
2022/07/14 09:12:44;;;;;;;2.45;1.75;;;29.00;74.90;;;;;;5093402;28;20490;-52
2022/07/14 09:18:11;;;;;;;9.38;4.85;;;28.60;76.40;;;;;;5111033;28;20042;-48
2022/07/14 09:20:38;;;;;;;31.10;19.13;;;28.50;76.40;;;;;;5094049;28;20023;-48
2022/07/14 09:23:04;;;;;;;8.05;6.65;;;28.40;77.40;;;;;;5110711;28;20433;-47
2022/07/14 09:25:34;;;;;;;2.00;1.80;;;28.40;76.70;;;;;;5112323;28;20548;-47
2022/07/14 09:28:00;;;;;;;4.57;2.10;;;28.30;76.40;;;;;;5110842;28;20051;-46
2022/07/14 09:30:26;;;;;;;7.15;1.98;;;28.20;77.30;;;;;;5111851;28;20063;-47
2022/07/14 09:32:52;;;;;;;4.60;1.65;;;28.20;77.00;;;;;;5111872;28;20051;-45
2022/07/14 09:35:21;;;;;;;6.82;2.17;;;28.40;77.10;;;;;;5111734;28;20023;-46
2022/07/14 09:37:48;;;;;;;3.55;2.00;;;28.50;77.10;;;;;;5091580;28;20023;-51
2022/07/14 09:40:30;;;;;;;3.92;1.85;;;28.70;76.20;;;;;;5110629;28;20091;-50
2022/07/14 09:43:01;;;;;;;3.38;1.95;;;28.70;75.30;;;;;;5116201;28;20019;-46
2022/07/14 09:45:35;;;;;;;9.60;2.38;;;28.70;76.00;;;;;;5097440;28;20499;-48
2022/07/14 09:48:04;;;;;;;6.50;1.67;;;28.90;75.40;;;;;;5115602;28;20024;-49
2022/07/14 09:50:50;;;;;;;4.38;2.25;;;28.80;75.80;;;;;;5115909;28;20024;-51
2022/07/14 09:53:15;;;;;;;7.93;2.25;;;28.80;75.30;;;;;;5116144;28;20482;-50
2022/07/14 09:55:48;;;;;;;5.68;1.98;;;28.90;75.60;;;;;;5115904;28;20112;-47
2022/07/14 09:58:13;;;;;;;6.50;1.90;;;28.80;76.10;;;;;;5115419;28;20019;-49
2022/07/14 10:00:42;;;;;;;9.68;2.40;;;28.50;76.60;;;;;;5115993;28;20027;-48
2022/07/14 10:03:08;;;;;;;4.60;2.20;;;28.90;76.50;;;;;;5115922;28;20601;-47
2022/07/14 10:05:35;;;;;;;3.70;2.20;;;29.00;75.50;;;;;;5115643;28;20136;-47
2022/07/14 10:08:05;;;;;;;2.80;1.65;;;29.10;75.20;;;;;;5115244;28;20038;-51
2022/07/14 10:10:36;;;;;;;4.60;2.30;;;28.90;75.90;;;;;;5115871;28;20024;-47
2022/07/14 10:13:04;;;;;;;7.00;2.13;;;28.90;75.00;;;;;;5115797;28;20020;-47
2022/07/14 10:15:30;;;;;;;7.15;2.40;;;28.70;77.10;;;;;;5115624;28;20051;-48
2022/07/14 10:17:59;;;;;;;7.20;2.78;;;28.70;78.20;;;;;;5096575;28;20027;-49
2022/07/14 10:20:26;;;;;;;10.02;2.55;;;28.80;78.40;;;;;;5115692;28;20024;-51
2022/07/14 10:22:55;;;;;;;6.85;2.58;;;28.90;78.40;;;;;;5115774;28;20031;-46
2022/07/14 10:25:21;;;;;;;4.90;2.67;;;28.80;78.80;;;;;;5115462;28;20387;-48
2022/07/14 10:27:48;;;;;;;4.82;2.47;;;28.80;78.70;;;;;;5114902;28;20487;-49
2022/07/14 10:30:14;;;;;;;5.22;2.63;;;28.90;77.30;;;;;;5109742;28;20032;-49
2022/07/14 10:32:50;;;;;;;5.05;2.38;;;28.70;77.70;;;;;;5093246;28;20020;-52
2022/07/14 10:35:18;;;;;;;4.97;2.40;;;28.70;78.40;;;;;;5094794;28;20039;-49
2022/07/14 10:38:09;;;;;;;4.78;3.38;;;28.60;78.20;;;;;;5094009;28;20525;-50
2022/07/14 10:41:04;;;;;;;5.85;2.67;;;28.60;79.90;;;;;;5094466;28;20085;-47
2022/07/14 10:43:50;;;;;;;2.95;2.65;;;28.60;77.90;;;;;;5094478;28;20097;-46
2022/07/14 10:46:43;;;;;;;4.78;2.80;;;28.60;78.30;;;;;;5094518;28;20035;-49
2022/07/14 10:49:10;;;;;;;4.43;2.60;;;28.30;78.90;;;;;;5075778;28;20028;-46
2022/07/14 10:51:47;;;;;;;6.47;2.53;;;28.10;79.10;;;;;;5075729;28;20077;-47
2022/07/14 10:54:23;;;;;;;4.28;2.58;;;28.20;79.50;;;;;;5094336;28;20373;-51
2022/07/14 10:56:48;;;;;;;4.55;2.83;;;28.40;79.50;;;;;;5076357;22;20055;-50
2022/07/14 10:59:26;;;;;;;5.55;2.53;;;28.40;78.80;;;;;;5073664;28;20439;-46
2022/07/14 11:02:10;;;;;;;4.75;2.40;;;28.40;79.10;;;;;;5073620;28;20519;-49
2022/07/14 11:05:01;;;;;;;3.65;2.45;;;28.10;79.80;;;;;;5073702;28;20024;-48
2022/07/14 11:07:41;;;;;;;13.15;3.58;;;28.20;80.10;;;;;;5052982;28;20029;-47
2022/07/14 11:10:18;;;;;;;8.20;2.75;;;28.20;79.70;;;;;;5053674;28;20032;-47
2022/07/14 11:13:02;;;;;;;6.10;2.63;;;28.30;80.20;;;;;;5053528;28;20024;-47
2022/07/14 11:15:54;;;;;;;6.40;2.87;;;28.40;80.30;;;;;;5053230;28;20564;-48
2022/07/14 11:18:21;;;;;;;5.95;2.78;;;28.60;80.80;;;;;;5053230;28;20087;-47
2022/07/14 11:21:06;;;;;;;5.65;2.80;;;28.60;79.30;;;;;;5053354;28;20025;-48
2022/07/14 11:23:37;;;;;;;6.90;2.50;;;28.40;79.30;;;;;;5053396;28;20021;-49
2022/07/14 11:26:27;;;;;;;7.38;2.45;;;28.50;79.50;;;;;;5053447;28;20045;-47
2022/07/14 11:28:52;;;;;;;5.88;2.60;;;28.60;80.80;;;;;;5052306;28;20029;-47
2022/07/14 11:31:21;;;;;;;6.07;2.70;;;28.60;80.10;;;;;;5051717;28;20029;-51
2022/07/14 11:37:04;;;;;;;7.78;2.78;;;28.90;79.50;;;;;;5053097;28;20135;-49
2022/07/14 11:39:38;;;;;;;6.68;2.58;;;28.90;77.40;;;;;;5052625;28;20048;-49
2022/07/14 11:42:19;;;;;;;6.28;2.70;;;28.80;77.90;;;;;;5053106;28;20040;-50
2022/07/14 11:44:46;;;;;;;2.97;2.33;;;28.70;79.60;;;;;;5052682;28;20029;-52
2022/07/14 11:47:30;;;;;;;3.88;2.40;;;28.80;78.50;;;;;;5051971;28;20024;-46
2022/07/14 11:50:00;;;;;;;4.28;2.67;;;29.10;78.50;;;;;;5052836;28;20029;-50
2022/07/14 11:52:34;;;;;;;6.38;2.67;;;29.10;77.40;;;;;;5053000;28;20059;-50
2022/07/14 11:55:03;;;;;;;3.27;2.20;;;29.20;78.40;;;;;;5052566;28;20029;-49
2022/07/14 11:57:28;;;;;;;13.77;2.33;;;29.40;78.80;;;;;;5051840;28;20033;-52
2022/07/14 12:00:03;;;;;;;3.35;3.00;;;29.30;78.50;;;;;;5052858;28;20029;-50
2022/07/14 12:02:28;;;;;;;;;;;29.30;77.60;;;;;;5053234;28;20489;-48
2022/07/14 12:04:59;;;;;;;8.38;2.70;;;28.70;78.00;;;;;;5052466;28;19911;-48
2022/07/14 12:07:45;;;;;;;5.90;2.20;;;28.50;78.20;;;;;;5051938;28;20040;-50
2022/07/14 12:10:12;;;;;;;3.53;2.60;;;28.40;78.90;;;;;;5052790;28;20117;-46
2022/07/14 12:12:45;;;;;;;4.93;2.33;;;28.60;78.60;;;;;;5052365;28;20025;-49
2022/07/14 12:15:11;;;;;;;6.22;2.80;;;28.40;79.20;;;;;;5052672;28;20029;-52
2022/07/14 12:17:47;;;;;;;6.47;3.00;;;28.50;78.80;;;;;;5051921;28;20389;-47
2022/07/14 12:20:13;;;;;;;5.90;2.88;;;28.50;78.40;;;;;;5053063;28;20021;-49
2022/07/14 12:22:44;;;;;;;7.05;2.70;;;28.50;78.60;;;;;;5052071;28;20051;-47
2022/07/14 12:25:30;;;;;;;5.32;2.45;;;28.40;78.50;;;;;;5051988;28;20025;-46
2022/07/14 12:27:58;;;;;;;5.88;2.40;;;28.40;78.80;;;;;;5051334;28;20391;-48
2022/07/14 12:30:23;;;;;;;3.17;2.85;;;28.40;78.50;;;;;;5052098;28;20029;-49
2022/07/14 12:32:54;;;;;;;4.20;2.67;;;28.30;78.40;;;;;;5051642;28;20032;-50
2022/07/14 12:35:21;;;;;;;6.93;2.70;;;28.40;79.60;;;;;;5051790;28;20021;-50
2022/07/14 12:37:52;;;;;;;3.65;2.55;;;28.70;79.00;;;;;;5051037;28;20028;-52
2022/07/14 12:40:18;;;;;;;8.88;2.50;;;28.60;77.50;;;;;;5052278;28;20029;-49
2022/07/14 12:42:45;;;;;;;3.83;2.13;;;28.70;77.50;;;;;;5051972;28;20389;-50
2022/07/14 12:45:11;;;;;;;7.05;2.40;;;28.70;77.20;;;;;;5051671;28;20382;-48
2022/07/14 12:47:49;;;;;;;5.45;1.90;;;28.70;76.30;;;;;;5051119;28;20079;-51
2022/07/14 12:50:20;;;;;;;5.78;2.00;;;28.70;76.50;;;;;;5052123;28;20025;-50
2022/07/14 12:52:53;;;;;;;4.93;1.95;;;28.50;72.30;;;;;;5051602;28;20032;-52
2022/07/14 12:55:44;;;;;;;2.88;2.00;;;28.40;69.90;;;;;;5051713;28;20028;-44
2022/07/14 12:58:12;;;;;;;9.88;3.40;;;28.50;71.00;;;;;;5032879;28;20029;-46
2022/07/14 13:00:39;;;;;;;30.05;22.60;;;28.10;69.80;;;;;;5051672;28;20017;-50
2022/07/14 13:03:19;;;;;;;3.08;2.85;;;28.70;68.50;;;;;;5033375;28;20028;-46